सभी
Terrell County Airport (Dryden, TX) 6R6 मौसम
|
Dryden, TX (6R6)
स्वच्छ आकाश
हल्की हवाएं |
|
19 °C |
There is no TAF data available at 6R6 or any nearby airports.
Recent 6R6 METAR history
| Date | Time (CDT) | Flight Rules | Wind Dir. | Speed | Type | Height AGL (ft) | Visibility | Temp (°C) | Temp (°F) | Dew Point (°C) | Dew Point (°F) | Rel. Humid. | Pressure | Density Altitude | Remarks |
|---|---|---|---|---|---|---|---|---|---|---|---|---|---|---|---|
| 05-मई | 06:51 | n/a | 20° | 4 kt | Missing | 19° | 66° | 16° | 60° | 84% | 29.79 in Hg | 3,408 ft | |||
| 05-मई | 05:51 | n/a | 340° | 6 kt | Missing | 18° | 64° | 16° | 60° | 84% | 29.78 in Hg | 3,298 ft | |||
| 05-मई | 04:51 | n/a | 360° | 5 kt | Missing | 20° | 68° | 16° | 60° | 78% | 29.77 in Hg | 3,548 ft | |||
| 05-मई | 03:51 | n/a | 360° | 6 kt | Missing | 20° | 68° | 16° | 60° | 78% | 29.77 in Hg | 3,548 ft | |||
| 05-मई | 02:51 | n/a | 10° | 5 kt | Missing | 21° | 69° | 16° | 60° | 75% | 29.79 in Hg | 3,648 ft | |||
| 05-मई | 01:51 | n/a | 20° | 6 kt | Missing | 21° | 69° | 16° | 60° | 73% | 29.80 in Hg | 3,638 ft | |||
| 05-मई | 00:51 | n/a | 60° | 6 kt | Missing | 22° | 71° | 16° | 60° | 68% | 29.82 in Hg | 3,738 ft | |||
| 04-मई | 23:51 | n/a | 70° | 5 kt | Missing | 23° | 73° | 16° | 60° | 64% | 29.82 in Hg | 3,858 ft | |||
| 04-मई | 22:51 | n/a | 90° | 7 kt | Missing | 24° | 75° | 16° | 60° | 58% | 29.81 in Hg | 3,988 ft | |||
| 04-मई | 21:51 | n/a | 70° | 6 kt | Missing | 26° | 78° | 15° | 59° | 52% | 29.81 in Hg | 4,228 ft | |||
| 04-मई | 20:51 | n/a | 100° | 7 kt | Missing | 27° | 80° | 14° | 57° | 45% | 29.79 in Hg | 4,368 ft | |||
| 04-मई | 19:51 | n/a | 110° | 10 kt | Missing | 29° | 84° | 14° | 57° | 40% | 29.78 in Hg | 4,618 ft | |||
| 04-मई | 18:51 | n/a | 110° | 12 kt | Missing | 31° | 87° | 13° | 55° | 35% | 29.79 in Hg | 4,848 ft | |||
| 04-मई | 17:51 | n/a | 110° | 8 kt | Missing | 31° | 87° | 13° | 55° | 34% | 29.80 in Hg | 4,838 ft | |||
| 04-मई | 16:51 | n/a | 120° | 9 kt | Missing | 31° | 87° | 13° | 55° | 35% | 29.82 in Hg | 4,818 ft | |||
| 04-मई | 15:51 | n/a | Variable | 6 kt | Missing | 29° | 84° | 13° | 55° | 36% | 29.86 in Hg | 4,538 ft | |||
| 04-मई | 14:51 | n/a | 160° | 9 kt | Missing | 28° | 82° | 13° | 55° | 40% | 29.88 in Hg | 4,398 ft | |||
| 04-मई | 13:51 | n/a | Variable | 6 kt | Missing | 27° | 80° | 13° | 55° | 41% | 29.90 in Hg | 4,258 ft | |||
| 04-मई | 12:51 | n/a | Variable | 3 kt | Missing | 25° | 77° | 13° | 55° | 47% | 29.92 in Hg | 3,998 ft | |||
| 04-मई | 11:51 | n/a | 110° | 6 kt | Missing | 23° | 73° | 13° | 55° | 53% | 29.95 in Hg | 3,728 ft | |||
| 04-मई | 10:51 | n/a | Calm | Missing | 21° | 69° | 13° | 55° | 61% | 29.95 in Hg | 3,488 ft | ||||
| 04-मई | 09:51 | n/a | 80° | 7 kt | Missing | 19° | 66° | 13° | 55° | 66% | 29.95 in Hg | 3,248 ft | |||
| 04-मई | 08:51 | n/a | 90° | 7 kt | Missing | 18° | 64° | 13° | 55° | 70% | 29.94 in Hg | 3,138 ft | |||
| 04-मई | 07:51 | n/a | 60° | 5 kt | Missing | 16° | 60° | 12° | 53° | 75% | 29.93 in Hg | 2,908 ft |
लॉगिन
| Your browser is unsupported. अपना ब्राऊजर अपग्रेड करें |
